BEL7AJ LEMG-EBBR
Flight info
| Callsign | BEL7AJ |
|---|---|
| Flight time | N/A |
| Altitude | 36000 |
| Route | BLN5H BLN N865 SIE DCT XERMA N865 DELOG/N0452F340 DCT DIDIG DCT USODA DCT ERCUT DCT DITAL UN873 BAZOS DCT BELDI DCT VEKIN Z173 ARVOL ARVOL9A |
| Aircraft | A21N/M-SDE2E3FGHIRWXY/LB1 |
Departure
| Time | 2026-05-06 12:06 |
|---|---|
| Airport | Málaga-Costa del Sol Airport (LEMG) |
Arrival
| Time | N/A |
|---|---|
| Airport | Brussels Airport (EBBR) |
| Time | Latitude | Longitude | Altitude | Speed | Heading |
|---|---|---|---|---|---|
| 2026-05-06 11:56 | 36.68074 | -4.50179 | 43 ft | 0 kts | 311° |
| 2026-05-06 12:01 | 36.68075 | -4.50179 | 43 ft | 0 kts | 311° |
| 2026-05-06 12:01 | 36.68078 | -4.50184 | 43 ft | 1 kts | 304° |
| 2026-05-06 12:01 | 36.68082 | -4.50194 | 43 ft | 1 kts | 298° |
| 2026-05-06 12:02 | 36.68093 | -4.50231 | 44 ft | 5 kts | 283° |
| 2026-05-06 12:02 | 36.68102 | -4.50276 | 44 ft | 5 kts | 283° |
| 2026-05-06 12:02 | 36.68109 | -4.50318 | 45 ft | 4 kts | 283° |
| 2026-05-06 12:02 | 36.68147 | -4.50407 | 45 ft | 18 kts | 307° |
| 2026-05-06 12:03 | 36.68255 | -4.50542 | 44 ft | 23 kts | 313° |
| 2026-05-06 12:03 | 36.68323 | -4.50640 | 44 ft | 14 kts | 308° |
| 2026-05-06 12:03 | 36.68325 | -4.50751 | 46 ft | 12 kts | 274° |
| 2026-05-06 12:03 | 36.68362 | -4.50837 | 48 ft | 11 kts | 309° |
| 2026-05-06 12:04 | 36.68409 | -4.50908 | 49 ft | 10 kts | 309° |
| 2026-05-06 12:04 | 36.68456 | -4.50973 | 50 ft | 9 kts | 314° |
| 2026-05-06 12:04 | 36.68503 | -4.51036 | 51 ft | 9 kts | 306° |
| 2026-05-06 12:04 | 36.68498 | -4.51120 | 51 ft | 10 kts | 252° |
| 2026-05-06 12:05 | 36.68464 | -4.51199 | 52 ft | 9 kts | 216° |
| 2026-05-06 12:05 | 36.68406 | -4.51189 | 53 ft | 9 kts | 140° |
| 2026-05-06 12:05 | 36.68241 | -4.50967 | 52 ft | 75 kts | 129° |
| 2026-05-06 12:05 | 36.67716 | -4.50230 | 51 ft | 150 kts | 126° |
| 2026-05-06 12:06 | 36.66919 | -4.49073 | 309 ft | 192 kts | 131° |
| 2026-05-06 12:06 | 36.66009 | -4.47822 | 1129 ft | 198 kts | 133° |
| 2026-05-06 12:06 | 36.65138 | -4.46608 | 2201 ft | 185 kts | 132° |
| 2026-05-06 12:06 | 36.64280 | -4.45412 | 2683 ft | 192 kts | 132° |
| 2026-05-06 12:07 | 36.63348 | -4.44110 | 2951 ft | 211 kts | 131° |
| 2026-05-06 12:07 | 36.62331 | -4.42689 | 3293 ft | 227 kts | 131° |
| 2026-05-06 12:07 | 36.61253 | -4.41179 | 3648 ft | 244 kts | 131° |
| 2026-05-06 12:07 | 36.60185 | -4.39480 | 4143 ft | 254 kts | 118° |
| 2026-05-06 12:08 | 36.59596 | -4.37437 | 4833 ft | 255 kts | 102° |
| 2026-05-06 12:08 | 36.59238 | -4.35283 | 5534 ft | 256 kts | 101° |
| 2026-05-06 12:08 | 36.58901 | -4.33115 | 6225 ft | 257 kts | 101° |
| 2026-05-06 12:08 | 36.58549 | -4.30917 | 6871 ft | 260 kts | 102° |
| 2026-05-06 12:09 | 36.58394 | -4.28705 | 7454 ft | 265 kts | 80° |
| 2026-05-06 12:09 | 36.59179 | -4.26638 | 8076 ft | 266 kts | 51° |
| 2026-05-06 12:09 | 36.60382 | -4.24902 | 8741 ft | 268 kts | 50° |
| 2026-05-06 12:09 | 36.61576 | -4.23111 | 9312 ft | 271 kts | 52° |
| 2026-05-06 12:10 | 36.62855 | -4.21383 | 9895 ft | 275 kts | 39° |
| 2026-05-06 12:10 | 36.64502 | -4.20189 | 10345 ft | 282 kts | 21° |
| 2026-05-06 12:10 | 36.66420 | -4.19370 | 10636 ft | 297 kts | 17° |
| 2026-05-06 12:10 | 36.68440 | -4.18595 | 10893 ft | 311 kts | 16° |
| 2026-05-06 12:11 | 36.70568 | -4.17767 | 11158 ft | 326 kts | 17° |
| 2026-05-06 12:11 | 36.72789 | -4.16902 | 11410 ft | 340 kts | 16° |
| 2026-05-06 12:11 | 36.75087 | -4.16019 | 11647 ft | 354 kts | 16° |
| 2026-05-06 12:11 | 36.77498 | -4.15088 | 12021 ft | 363 kts | 16° |
| 2026-05-06 12:12 | 36.79932 | -4.14140 | 12602 ft | 366 kts | 16° |
| 2026-05-06 12:12 | 36.82354 | -4.13195 | 13153 ft | 369 kts | 16° |
| 2026-05-06 12:12 | 36.84816 | -4.12236 | 13706 ft | 373 kts | 16° |
| 2026-05-06 12:12 | 36.87294 | -4.11270 | 14222 ft | 376 kts | 15° |